Time;durP1;ratioP1;P1;durP2;ratioP2;P2;SDS_P1;SDS_P2;PMS_P1;PMS_P2;Temp;Humidity;BMP_temperature;BMP_pressure;BME280_temperature;BME280_humidity;BME280_pressure;Samples;Min_cycle;Max_cycle;Signal;HPM_P1;HPM_P2
2021/12/23 00:02:13;;;;;;;22.13;13.70;;;;;;;;;;5056325;28;20658;-64
2021/12/23 00:04:39;;;;;;;20.67;14.83;;;;;;;;;;5057994;28;20173;-65
2021/12/23 00:07:06;;;;;;;25.07;15.43;;;;;;;;;;5057645;28;20180;-64
2021/12/23 00:12:16;;;;;;;21.90;14.00;;;;;;;;;;5061890;28;20952;-65
2021/12/23 00:14:44;;;;;;;18.77;14.60;;;;;;;;;;5061257;28;20416;-64
2021/12/23 00:17:25;;;;;;;19.97;14.73;;;;;;;;;;5061458;28;20404;-65
2021/12/23 00:23:21;;;;;;;22.10;14.20;;;;;;;;;;5061649;28;20446;-63
2021/12/23 00:25:28;;;;;;;20.77;14.17;;;;;;;;;;5061331;28;20554;-64
2021/12/23 00:27:54;;;;;;;21.47;14.10;;;;;;;;;;5061031;28;20472;-64
2021/12/23 00:30:20;;;;;;;19.90;13.73;;;;;;;;;;5061600;28;20495;-65
2021/12/23 00:32:46;;;;;;;19.63;12.47;;;;;;;;;;5061030;28;20646;-64
2021/12/23 00:35:12;;;;;;;17.77;13.60;;;;;;;;;;5061363;28;20401;-65
2021/12/23 00:37:44;;;;;;;19.23;14.23;;;;;;;;;;5059938;28;20560;-63
2021/12/23 00:40:11;;;;;;;22.67;15.60;;;;;;;;;;5060832;28;20774;-63
2021/12/23 00:42:37;;;;;;;19.20;13.47;;;;;;;;;;5060721;28;20416;-63
2021/12/23 00:45:04;;;;;;;19.63;13.50;;;;;;;;;;5060962;28;20416;-63
2021/12/23 00:47:30;;;;;;;22.70;14.30;;;;;;;;;;5060029;28;20525;-64
2021/12/23 00:49:56;;;;;;;23.60;14.80;;;;;;;;;;5059985;28;20491;-63
2021/12/23 00:52:33;;;;;;;19.13;13.43;;;;;;;;;;5060913;28;20409;-63
2021/12/23 00:54:59;;;;;;;20.60;14.20;;;;;;;;;;5060286;28;20397;-63
2021/12/23 00:57:29;;;;;;;19.10;13.87;;;;;;;;;;5061127;28;20433;-64
2021/12/23 00:59:56;;;;;;;24.90;15.73;;;;;;;;;;5060560;28;20242;-64
2021/12/23 01:02:25;;;;;;;27.67;17.33;;;;;;;;;;5060827;28;20439;-64
2021/12/23 01:04:51;;;;;;;25.40;15.43;;;;;;;;;;5059308;28;20421;-64
2021/12/23 01:07:18;;;;;;;24.50;15.30;;;;;;;;;;5059624;28;20466;-63
2021/12/23 01:09:43;;;;;;;22.17;13.93;;;;;;;;;;5060029;28;20178;-63
2021/12/23 01:12:12;;;;;;;19.73;14.23;;;;;;;;;;5059110;28;20429;-64
2021/12/23 01:19:52;;;;;;;20.20;13.80;;;;;;;;;;5060474;28;20412;-65
2021/12/23 01:22:18;;;;;;;22.13;14.20;;;;;;;;;;5059981;28;20400;-63
2021/12/23 01:24:44;;;;;;;18.00;13.00;;;;;;;;;;5058641;28;20439;-65
2021/12/23 01:27:10;;;;;;;19.87;14.30;;;;;;;;;;5060130;28;20919;-63
2021/12/23 01:29:36;;;;;;;20.97;14.77;;;;;;;;;;5060029;28;20413;-63
2021/12/23 01:32:04;;;;;;;20.23;14.37;;;;;;;;;;5060724;28;20654;-64
2021/12/23 01:34:33;;;;;;;19.10;13.77;;;;;;;;;;5058918;28;20421;-64
2021/12/23 01:36:59;;;;;;;19.73;14.77;;;;;;;;;;5060201;28;20444;-63
2021/12/23 01:39:25;;;;;;;20.83;14.57;;;;;;;;;;5059864;28;20417;-64
2021/12/23 01:41:51;;;;;;;22.47;15.23;;;;;;;;;;5059267;28;20273;-64
2021/12/23 01:44:17;;;;;;;21.83;14.77;;;;;;;;;;5059488;28;20258;-64
2021/12/23 01:46:43;;;;;;;23.83;14.60;;;;;;;;;;5059836;28;20202;-65
2021/12/23 01:49:09;;;;;;;23.63;14.60;;;;;;;;;;5060164;28;20464;-63
2021/12/23 01:51:35;;;;;;;21.77;15.70;;;;;;;;;;5059411;28;20213;-65
2021/12/23 01:54:01;;;;;;;22.37;15.17;;;;;;;;;;5059076;28;20402;-64
2021/12/23 01:56:28;;;;;;;18.53;14.20;;;;;;;;;;5059368;28;20192;-64
2021/12/23 01:58:54;;;;;;;22.00;15.07;;;;;;;;;;5059298;28;20419;-63
2021/12/23 02:01:20;;;;;;;21.00;14.47;;;;;;;;;;5059245;28;20492;-65
2021/12/23 02:03:46;;;;;;;21.87;14.93;;;;;;;;;;5059594;28;20413;-63
2021/12/23 02:06:12;;;;;;;20.27;14.03;;;;;;;;;;5058722;28;20417;-62
2021/12/23 02:08:38;;;;;;;20.00;14.77;;;;;;;;;;5059312;28;20479;-64
2021/12/23 02:11:05;;;;;;;26.10;15.70;;;;;;;;;;5059340;28;20205;-65
2021/12/23 02:13:32;;;;;;;27.13;15.57;;;;;;;;;;5059281;28;20424;-65
2021/12/23 02:15:58;;;;;;;19.20;14.77;;;;;;;;;;5057602;28;20413;-62
2021/12/23 02:18:24;;;;;;;24.50;15.77;;;;;;;;;;5057697;28;20421;-63
2021/12/23 02:20:50;;;;;;;20.57;13.60;;;;;;;;;;5057845;28;20442;-64
2021/12/23 02:23:16;;;;;;;21.30;14.10;;;;;;;;;;5059168;28;20413;-64
2021/12/23 02:25:42;;;;;;;21.63;14.90;;;;;;;;;;5058199;28;20179;-63
2021/12/23 02:28:08;;;;;;;22.40;15.73;;;;;;;;;;5058910;28;20205;-64
2021/12/23 02:30:39;;;;;;;21.30;14.47;;;;;;;;;;5058177;28;20504;-63
2021/12/23 02:33:08;;;;;;;20.97;14.73;;;;;;;;;;5055466;28;20421;-62
2021/12/23 02:35:35;;;;;;;26.17;16.63;;;;;;;;;;5057209;28;20405;-65
2021/12/23 02:38:01;;;;;;;20.73;15.23;;;;;;;;;;5058454;28;20901;-63
2021/12/23 02:40:27;;;;;;;20.40;15.07;;;;;;;;;;5057155;28;20438;-64
2021/12/23 02:42:53;;;;;;;23.00;16.13;;;;;;;;;;5059420;28;20417;-65
2021/12/23 02:45:19;;;;;;;22.77;15.47;;;;;;;;;;5057200;28;20197;-67
2021/12/23 02:47:45;;;;;;;21.53;15.70;;;;;;;;;;5057036;28;20476;-64
2021/12/23 02:50:11;;;;;;;26.53;15.83;;;;;;;;;;5058031;28;20277;-66
2021/12/23 02:52:37;;;;;;;22.33;15.53;;;;;;;;;;5058413;28;20178;-64
2021/12/23 02:55:04;;;;;;;26.33;15.50;;;;;;;;;;5058236;28;20483;-64
2021/12/23 02:57:33;;;;;;;23.10;15.50;;;;;;;;;;5058289;28;20178;-63
2021/12/23 02:59:59;;;;;;;22.20;16.00;;;;;;;;;;5058169;28;20429;-64
2021/12/23 03:02:25;;;;;;;27.07;17.40;;;;;;;;;;5057014;28;20469;-64
2021/12/23 03:04:51;;;;;;;23.13;17.10;;;;;;;;;;5058269;28;20190;-65
2021/12/23 03:07:17;;;;;;;23.23;15.90;;;;;;;;;;5057779;28;20179;-64
2021/12/23 03:09:47;;;;;;;22.13;16.97;;;;;;;;;;5057822;28;20220;-64
2021/12/23 03:12:14;;;;;;;22.13;16.20;;;;;;;;;;5057851;28;20408;-63
2021/12/23 03:14:40;;;;;;;23.10;16.20;;;;;;;;;;5056487;28;20419;-65
2021/12/23 03:17:06;;;;;;;23.83;15.00;;;;;;;;;;5057725;28;20409;-64
2021/12/23 03:19:32;;;;;;;24.90;16.67;;;;;;;;;;5057822;28;20409;-64
2021/12/23 03:21:58;;;;;;;24.27;17.10;;;;;;;;;;5058132;28;21007;-64
2021/12/23 03:24:24;;;;;;;23.67;16.67;;;;;;;;;;5058278;28;20559;-64
2021/12/23 03:26:51;;;;;;;23.83;15.73;;;;;;;;;;5057887;28;20605;-65
2021/12/23 03:29:17;;;;;;;22.43;16.33;;;;;;;;;;5057502;28;20705;-64
2021/12/23 03:31:43;;;;;;;26.10;17.80;;;;;;;;;;5058060;28;20491;-62
2021/12/23 03:34:09;;;;;;;24.33;17.13;;;;;;;;;;5058124;28;20803;-65
2021/12/23 03:36:35;;;;;;;24.63;17.17;;;;;;;;;;5057297;28;20410;-65
2021/12/23 03:39:01;;;;;;;25.70;18.17;;;;;;;;;;5057773;28;20413;-64
2021/12/23 03:41:27;;;;;;;26.07;17.07;;;;;;;;;;5056945;28;20502;-61
2021/12/23 03:43:53;;;;;;;24.73;17.20;;;;;;;;;;5056929;28;20421;-64
2021/12/23 03:46:19;;;;;;;25.03;17.27;;;;;;;;;;5057828;28;20588;-64
2021/12/23 03:48:45;;;;;;;28.13;18.10;;;;;;;;;;5057656;28;20921;-64
2021/12/23 03:51:11;;;;;;;26.43;16.57;;;;;;;;;;5057924;28;20428;-65
2021/12/23 03:53:37;;;;;;;27.77;17.83;;;;;;;;;;5057938;28;20249;-65
2021/12/23 03:56:03;;;;;;;26.70;18.90;;;;;;;;;;5057922;28;20409;-62
2021/12/23 03:58:29;;;;;;;27.20;18.00;;;;;;;;;;5057463;28;20218;-64
2021/12/23 04:00:55;;;;;;;28.00;18.63;;;;;;;;;;5057945;28;20461;-65
2021/12/23 04:03:21;;;;;;;29.43;18.97;;;;;;;;;;5057658;28;20409;-63
2021/12/23 04:05:47;;;;;;;29.67;20.00;;;;;;;;;;5058026;28;20182;-65
2021/12/23 04:08:13;;;;;;;29.67;19.47;;;;;;;;;;5056096;28;20472;-65
2021/12/23 04:10:39;;;;;;;30.70;19.70;;;;;;;;;;5057575;28;20220;-65
2021/12/23 04:13:06;;;;;;;28.83;19.03;;;;;;;;;;5056171;28;20788;-63
2021/12/23 04:15:32;;;;;;;30.70;19.83;;;;;;;;;;5056501;28;20405;-65
2021/12/23 04:17:58;;;;;;;30.87;20.47;;;;;;;;;;5058007;28;20419;-64
2021/12/23 04:20:31;;;;;;;30.33;19.90;;;;;;;;;;5057355;28;20436;-64
2021/12/23 04:22:57;;;;;;;29.27;18.40;;;;;;;;;;5057476;28;20190;-64
2021/12/23 04:25:25;;;;;;;24.83;18.13;;;;;;;;;;5057275;28;20417;-64
2021/12/23 04:27:52;;;;;;;26.20;18.13;;;;;;;;;;5056248;28;20810;-68
2021/12/23 04:30:19;;;;;;;28.77;18.60;;;;;;;;;;5055760;28;20485;-64
2021/12/23 04:32:45;;;;;;;28.60;18.10;;;;;;;;;;5056849;28;20492;-62
2021/12/23 04:35:11;;;;;;;27.77;17.87;;;;;;;;;;5056919;28;20492;-65
2021/12/23 04:37:37;;;;;;;27.43;18.80;;;;;;;;;;5056834;28;20443;-64
2021/12/23 04:40:06;;;;;;;28.30;20.17;;;;;;;;;;5057015;28;20478;-66
2021/12/23 04:42:33;;;;;;;26.80;18.43;;;;;;;;;;5057305;28;20405;-61
2021/12/23 04:44:58;;;;;;;26.97;18.20;;;;;;;;;;5057473;28;20417;-64
2021/12/23 04:47:25;;;;;;;25.63;17.57;;;;;;;;;;5055111;28;20443;-61
2021/12/23 04:49:51;;;;;;;27.53;19.43;;;;;;;;;;5057589;28;20175;-64
2021/12/23 04:52:17;;;;;;;30.03;20.17;;;;;;;;;;5056945;28;20417;-62
2021/12/23 04:54:43;;;;;;;31.63;19.57;;;;;;;;;;5056234;28;20480;-62
2021/12/23 04:57:09;;;;;;;26.20;18.03;;;;;;;;;;5060042;28;20448;-65
2021/12/23 04:59:35;;;;;;;31.50;20.17;;;;;;;;;;5060622;28;20586;-64
2021/12/23 05:02:01;;;;;;;30.73;19.27;;;;;;;;;;5060747;28;20275;-63
2021/12/23 05:04:27;;;;;;;27.30;18.10;;;;;;;;;;5060027;28;20639;-63
2021/12/23 05:06:52;;;;;;;27.20;19.87;;;;;;;;;;5059644;28;20178;-64
2021/12/23 05:09:18;;;;;;;27.47;18.83;;;;;;;;;;5060303;28;20209;-63
2021/12/23 05:11:44;;;;;;;28.27;18.67;;;;;;;;;;5059385;28;20230;-64
2021/12/23 05:14:11;;;;;;;30.93;18.63;;;;;;;;;;5060318;28;20544;-64
2021/12/23 05:16:37;;;;;;;27.33;19.87;;;;;;;;;;5058491;28;20244;-64
2021/12/23 05:19:03;;;;;;;28.70;20.17;;;;;;;;;;5058577;28;20436;-64
2021/12/23 05:21:29;;;;;;;30.07;19.83;;;;;;;;;;5059858;28;20944;-64
2021/12/23 05:23:55;;;;;;;27.77;17.67;;;;;;;;;;5060100;28;20205;-65
2021/12/23 05:26:21;;;;;;;24.90;18.23;;;;;;;;;;5059913;28;20420;-64
2021/12/23 05:28:47;;;;;;;27.30;19.13;;;;;;;;;;5059865;28;20449;-64
2021/12/23 05:31:13;;;;;;;27.00;19.33;;;;;;;;;;5059925;28;20585;-63
2021/12/23 05:33:39;;;;;;;25.73;18.70;;;;;;;;;;5060326;28;20175;-64
2021/12/23 05:36:05;;;;;;;27.33;18.53;;;;;;;;;;5059694;28;20209;-64
2021/12/23 05:38:31;;;;;;;30.27;18.83;;;;;;;;;;5059983;28;20250;-65
2021/12/23 05:40:57;;;;;;;27.90;19.03;;;;;;;;;;5060247;28;20428;-64
2021/12/23 05:43:23;;;;;;;26.60;18.87;;;;;;;;;;5059552;28;20183;-65
2021/12/23 05:45:50;;;;;;;31.10;19.57;;;;;;;;;;5058249;28;20726;-64
2021/12/23 05:48:16;;;;;;;27.10;17.73;;;;;;;;;;5057787;28;20218;-65
2021/12/23 05:50:42;;;;;;;30.57;20.27;;;;;;;;;;5059175;28;20451;-64
2021/12/23 05:53:08;;;;;;;30.47;20.17;;;;;;;;;;5058785;28;20189;-64
2021/12/23 05:55:34;;;;;;;34.00;20.10;;;;;;;;;;5058802;28;20405;-64
2021/12/23 05:58:00;;;;;;;30.10;19.37;;;;;;;;;;5058408;28;20313;-64
2021/12/23 06:00:30;;;;;;;28.27;18.07;;;;;;;;;;5059032;28;20465;-64
2021/12/23 06:02:56;;;;;;;30.03;18.70;;;;;;;;;;5058014;28;20709;-64
2021/12/23 06:05:23;;;;;;;29.47;18.33;;;;;;;;;;5057888;28;20779;-64
2021/12/23 06:07:49;;;;;;;29.20;18.07;;;;;;;;;;5057202;28;20492;-65
2021/12/23 06:10:16;;;;;;;31.77;19.27;;;;;;;;;;5058836;28;20461;-64
2021/12/23 06:12:42;;;;;;;31.90;19.73;;;;;;;;;;5058625;28;20405;-65
2021/12/23 06:15:09;;;;;;;26.37;18.67;;;;;;;;;;5057763;28;20812;-63
2021/12/23 06:17:35;;;;;;;28.77;20.50;;;;;;;;;;5057195;28;20921;-64
2021/12/23 06:20:01;;;;;;;26.67;19.00;;;;;;;;;;5058231;28;20455;-63
2021/12/23 06:22:27;;;;;;;32.70;19.50;;;;;;;;;;5058464;28;20416;-64
2021/12/23 06:24:53;;;;;;;28.33;18.73;;;;;;;;;;5058121;28;20502;-64
2021/12/23 06:27:20;;;;;;;28.57;19.67;;;;;;;;;;5057696;28;20405;-66
2021/12/23 06:29:46;;;;;;;25.90;18.53;;;;;;;;;;5057896;28;20478;-65
2021/12/23 06:32:12;;;;;;;30.30;20.47;;;;;;;;;;5057856;28;20470;-63
2021/12/23 06:34:38;;;;;;;31.07;19.70;;;;;;;;;;5058239;28;20974;-63
2021/12/23 06:37:04;;;;;;;28.43;18.80;;;;;;;;;;5058375;28;20495;-65
2021/12/23 06:39:34;;;;;;;31.37;19.53;;;;;;;;;;5058234;28;20413;-63
2021/12/23 06:42:00;;;;;;;27.83;18.90;;;;;;;;;;5058538;28;20429;-64
2021/12/23 06:44:27;;;;;;;29.40;20.00;;;;;;;;;;5058258;28;20432;-64
2021/12/23 06:46:53;;;;;;;33.23;20.43;;;;;;;;;;5056479;28;20425;-67
2021/12/23 06:49:20;;;;;;;28.90;19.67;;;;;;;;;;5057255;28;20511;-64
2021/12/23 06:51:46;;;;;;;30.27;20.83;;;;;;;;;;5057186;28;20433;-64
2021/12/23 06:54:15;;;;;;;34.10;20.30;;;;;;;;;;5056839;28;20482;-64
2021/12/23 06:56:41;;;;;;;31.13;21.33;;;;;;;;;;5058350;28;20913;-65
2021/12/23 06:59:07;;;;;;;28.63;19.50;;;;;;;;;;5058659;28;20424;-64
2021/12/23 07:01:33;;;;;;;100.93;47.10;;;;;;;;;;5058314;28;20198;-64
2021/12/23 07:04:16;;;;;;;54.63;30.93;;;;;;;;;;5058239;28;20416;-64
2021/12/23 07:06:47;;;;;;;66.00;35.50;;;;;;;;;;5056608;28;20416;-66
2021/12/23 07:09:14;;;;;;;74.83;41.77;;;;;;;;;;5058313;28;21029;-64
2021/12/23 07:11:40;;;;;;;64.53;35.10;;;;;;;;;;5056718;28;20437;-67
2021/12/23 07:14:06;;;;;;;52.23;30.87;;;;;;;;;;5058732;28;20478;-64
2021/12/23 07:16:33;;;;;;;44.67;28.33;;;;;;;;;;5058723;28;20407;-64
2021/12/23 07:18:59;;;;;;;43.50;28.73;;;;;;;;;;5055694;28;20789;-65
2021/12/23 07:21:25;;;;;;;34.00;21.97;;;;;;;;;;5057144;28;20443;-65
2021/12/23 07:23:51;;;;;;;33.27;22.03;;;;;;;;;;5057438;28;20182;-64
2021/12/23 07:26:17;;;;;;;33.27;20.77;;;;;;;;;;5056885;28;20221;-65
2021/12/23 07:28:44;;;;;;;35.07;23.40;;;;;;;;;;5057512;28;20198;-65
2021/12/23 07:31:10;;;;;;;36.20;22.80;;;;;;;;;;5055959;28;20806;-65
2021/12/23 07:33:36;;;;;;;36.13;24.10;;;;;;;;;;5057564;28;20413;-64
2021/12/23 07:36:04;;;;;;;33.73;22.37;;;;;;;;;;5057807;28;20179;-65
2021/12/23 07:38:31;;;;;;;34.97;23.27;;;;;;;;;;5057917;28;20424;-64
2021/12/23 07:40:57;;;;;;;33.50;23.10;;;;;;;;;;5056236;28;20447;-65
2021/12/23 07:43:42;;;;;;;32.87;22.73;;;;;;;;;;5055898;28;20912;-65
2021/12/23 07:46:08;;;;;;;36.97;23.37;;;;;;;;;;5057434;28;20167;-65
2021/12/23 07:48:34;;;;;;;33.67;23.17;;;;;;;;;;5056751;28;20464;-65
2021/12/23 07:51:01;;;;;;;36.53;22.73;;;;;;;;;;5057394;28;20439;-65
2021/12/23 07:53:27;;;;;;;38.80;23.70;;;;;;;;;;5057717;28;20481;-65
2021/12/23 07:55:53;;;;;;;37.10;22.77;;;;;;;;;;5057442;28;20829;-65
2021/12/23 07:58:19;;;;;;;39.17;25.27;;;;;;;;;;5056715;28;20181;-65
2021/12/23 08:00:45;;;;;;;40.47;26.33;;;;;;;;;;5057246;28;20198;-65
2021/12/23 08:03:11;;;;;;;37.70;26.10;;;;;;;;;;5056972;28;20435;-62
2021/12/23 08:05:37;;;;;;;37.00;24.00;;;;;;;;;;5056974;28;20202;-65
2021/12/23 08:08:04;;;;;;;42.50;27.33;;;;;;;;;;5056385;28;20457;-65
2021/12/23 08:10:30;;;;;;;42.87;25.20;;;;;;;;;;5057198;28;20478;-64
2021/12/23 08:12:56;;;;;;;41.47;25.33;;;;;;;;;;5056041;28;20456;-64
2021/12/23 08:15:22;;;;;;;39.87;24.80;;;;;;;;;;5055454;28;20460;-64
2021/12/23 08:17:48;;;;;;;72.43;37.40;;;;;;;;;;5056005;28;20182;-65
2021/12/23 08:20:15;;;;;;;38.97;23.00;;;;;;;;;;5056497;28;20203;-66
2021/12/23 08:22:41;;;;;;;64.83;35.63;;;;;;;;;;5055323;28;20694;-64
2021/12/23 08:25:08;;;;;;;43.63;23.57;;;;;;;;;;5055384;28;20511;-65
2021/12/23 08:27:34;;;;;;;39.20;23.33;;;;;;;;;;5056556;28;20415;-64
2021/12/23 08:30:00;;;;;;;56.33;30.80;;;;;;;;;;5057225;28;20444;-64
2021/12/23 08:32:27;;;;;;;46.53;24.73;;;;;;;;;;5059277;28;20417;-64
2021/12/23 08:34:53;;;;;;;50.33;27.27;;;;;;;;;;5060812;28;20409;-65
2021/12/23 08:37:19;;;;;;;41.40;25.30;;;;;;;;;;5060245;28;20213;-62
2021/12/23 08:39:47;;;;;;;37.37;23.00;;;;;;;;;;5058440;28;20213;-63
2021/12/23 08:42:13;;;;;;;35.37;23.00;;;;;;;;;;5060313;28;20478;-65
2021/12/23 08:44:40;;;;;;;34.63;22.00;;;;;;;;;;5059248;28;20910;-65
2021/12/23 08:47:06;;;;;;;32.03;21.07;;;;;;;;;;5060842;28;20178;-65
2021/12/23 08:49:32;;;;;;;33.43;20.00;;;;;;;;;;5061159;28;20936;-65
2021/12/23 08:51:58;;;;;;;35.83;22.10;;;;;;;;;;5060933;28;20432;-65
2021/12/23 08:54:24;;;;;;;31.30;20.73;;;;;;;;;;5059425;28;20588;-65
2021/12/23 08:56:50;;;;;;;29.20;19.23;;;;;;;;;;5060854;28;20178;-64
2021/12/23 08:59:17;;;;;;;29.47;19.73;;;;;;;;;;5058778;28;20190;-66
2021/12/23 09:01:43;;;;;;;32.23;19.33;;;;;;;;;;5060272;28;20198;-65
2021/12/23 09:04:09;;;;;;;28.03;19.43;;;;;;;;;;5060272;28;20409;-64
2021/12/23 09:06:35;;;;;;;29.00;19.27;;;;;;;;;;5060237;28;20781;-65
2021/12/23 09:09:01;;;;;;;29.60;18.47;;;;;;;;;;5059893;28;20208;-65
2021/12/23 09:11:27;;;;;;;27.53;18.30;;;;;;;;;;5060013;28;20844;-64
2021/12/23 09:13:54;;;;;;;28.80;18.77;;;;;;;;;;5059525;28;20409;-64
2021/12/23 09:16:20;;;;;;;27.77;19.57;;;;;;;;;;5059524;28;20175;-65
2021/12/23 09:18:46;;;;;;;28.43;19.27;;;;;;;;;;5057651;28;20190;-64
2021/12/23 09:21:12;;;;;;;30.03;20.63;;;;;;;;;;5057492;28;20198;-64
2021/12/23 09:23:39;;;;;;;32.77;19.73;;;;;;;;;;5059467;28;20208;-65
2021/12/23 09:26:09;;;;;;;32.30;19.43;;;;;;;;;;5057859;28;20650;-65
2021/12/23 09:33:52;;;;;;;26.17;17.97;;;;;;;;;;5059026;28;20960;-66
2021/12/23 09:36:18;;;;;;;27.90;19.80;;;;;;;;;;5058480;28;20433;-65
2021/12/23 09:38:45;;;;;;;29.57;18.60;;;;;;;;;;5058633;28;20174;-65
2021/12/23 09:41:13;;;;;;;29.27;20.23;;;;;;;;;;5058656;28;20194;-63
2021/12/23 09:43:39;;;;;;;26.43;18.83;;;;;;;;;;5056272;28;20413;-65
2021/12/23 09:46:06;;;;;;;29.33;20.47;;;;;;;;;;5057590;28;20172;-64
2021/12/23 09:48:33;;;;;;;30.47;18.43;;;;;;;;;;5056947;28;20472;-65
2021/12/23 09:51:00;;;;;;;25.80;17.97;;;;;;;;;;5057857;28;20521;-64
2021/12/23 09:53:26;;;;;;;26.70;18.23;;;;;;;;;;5057711;28;20466;-63
2021/12/23 09:55:53;;;;;;;31.23;18.63;;;;;;;;;;5058386;28;20830;-64
2021/12/23 09:58:19;;;;;;;28.57;18.13;;;;;;;;;;5058310;28;20830;-64
2021/12/23 10:00:46;;;;;;;25.50;17.33;;;;;;;;;;5058532;28;21071;-65
2021/12/23 10:03:14;;;;;;;26.97;18.10;;;;;;;;;;5057879;28;20182;-64
2021/12/23 10:05:40;;;;;;;28.70;17.83;;;;;;;;;;5058559;28;20416;-64
2021/12/23 10:08:07;;;;;;;30.07;18.97;;;;;;;;;;5057981;28;20556;-63
2021/12/23 10:10:43;;;;;;;29.70;17.73;;;;;;;;;;5058094;28;20194;-63
2021/12/23 10:38:01;;;;;;;32.70;19.10;;;;;;;;;;5057590;28;20198;-63
2021/12/23 10:40:29;;;;;;;29.80;18.53;;;;;;;;;;5057163;28;20224;-65
2021/12/23 10:42:55;;;;;;;25.67;18.23;;;;;;;;;;5057032;28;20186;-63
2021/12/23 10:45:21;;;;;;;30.37;18.47;;;;;;;;;;5056724;28;20182;-65
2021/12/23 10:48:06;;;;;;;26.97;18.63;;;;;;;;;;5057050;28;20281;-63
2021/12/23 10:50:46;;;;;;;27.97;18.77;;;;;;;;;;5056871;28;20569;-63
2021/12/23 10:53:24;;;;;;;34.93;20.33;;;;;;;;;;5055122;28;20185;-64
2021/12/23 10:59:00;;;;;;;25.77;17.33;;;;;;;;;;5056908;28;20216;-64
2021/12/23 11:01:26;;;;;;;28.37;18.40;;;;;;;;;;5057431;28;20214;-64
2021/12/23 11:03:53;;;;;;;34.03;20.70;;;;;;;;;;5057174;28;20201;-63
2021/12/23 11:06:28;;;;;;;27.43;19.30;;;;;;;;;;5056667;28;20182;-63
2021/12/23 11:09:18;;;;;;;25.37;17.03;;;;;;;;;;5055402;28;20722;-64
2021/12/23 11:27:17;;;;;;;26.17;17.70;;;;;;;;;;5056571;28;20260;-63
2021/12/23 11:42:13;;;;;;;24.60;16.67;;;;;;;;;;5055967;28;20213;-62
2021/12/23 11:44:39;;;;;;;24.90;16.90;;;;;;;;;;5055768;28;20648;-63
2021/12/23 11:47:14;;;;;;;26.87;17.50;;;;;;;;;;5055119;28;20185;-65
2021/12/23 11:49:43;;;;;;;29.70;16.67;;;;;;;;;;5054965;28;20182;-65
2021/12/23 11:52:09;;;;;;;26.53;17.27;;;;;;;;;;5054531;28;20197;-65
2021/12/23 11:54:39;;;;;;;25.00;16.33;;;;;;;;;;5054785;28;20171;-64
2021/12/23 11:57:08;;;;;;;23.63;16.33;;;;;;;;;;5054829;28;20201;-65
2021/12/23 11:59:39;;;;;;;25.27;16.57;;;;;;;;;;5054231;28;20177;-62
2021/12/23 12:02:19;;;;;;;24.47;15.03;;;;;;;;;;5054520;28;20191;-65
2021/12/23 12:04:45;;;;;;;22.77;15.93;;;;;;;;;;5055857;28;20182;-64
2021/12/23 12:07:14;;;;;;;27.10;17.20;;;;;;;;;;5058364;28;20178;-63
2021/12/23 12:09:54;;;;;;;25.53;17.47;;;;;;;;;;5058351;28;20198;-64
2021/12/23 12:12:20;;;;;;;30.53;16.17;;;;;;;;;;5058733;28;20197;-63
2021/12/23 12:14:47;;;;;;;23.40;16.53;;;;;;;;;;5058573;28;20208;-63
2021/12/23 12:17:33;;;;;;;24.03;16.00;;;;;;;;;;5058196;28;20170;-63
2021/12/23 12:20:02;;;;;;;24.77;17.67;;;;;;;;;;5058363;28;20170;-64
2021/12/23 12:22:46;;;;;;;23.87;16.67;;;;;;;;;;5056712;28;20213;-64
2021/12/23 12:25:25;;;;;;;25.90;17.23;;;;;;;;;;5057847;28;20182;-65
2021/12/23 12:27:50;;;;;;;23.80;16.40;;;;;;;;;;5057972;28;20178;-65
2021/12/23 12:30:21;;;;;;;27.23;17.87;;;;;;;;;;5056851;28;20203;-64
2021/12/23 12:32:47;;;;;;;26.57;16.77;;;;;;;;;;5056851;28;20179;-64
2021/12/23 12:35:19;;;;;;;24.87;15.87;;;;;;;;;;5058009;28;20587;-63
2021/12/23 12:37:46;;;;;;;22.97;15.43;;;;;;;;;;5058428;28;20174;-65
2021/12/23 12:40:12;;;;;;;25.80;16.93;;;;;;;;;;5057724;28;20190;-66
2021/12/23 12:42:44;;;;;;;24.87;16.63;;;;;;;;;;5057452;28;20178;-66
2021/12/23 12:45:15;;;;;;;24.97;16.07;;;;;;;;;;5057516;28;20166;-66
2021/12/23 12:47:50;;;;;;;23.97;15.43;;;;;;;;;;5057529;28;20199;-63
2021/12/23 12:50:17;;;;;;;26.97;16.93;;;;;;;;;;5057203;28;20670;-64
2021/12/23 12:52:45;;;;;;;25.43;16.47;;;;;;;;;;5056136;28;20182;-65
2021/12/23 12:55:13;;;;;;;27.30;16.97;;;;;;;;;;5057233;28;20707;-64
2021/12/23 12:57:46;;;;;;;26.50;16.03;;;;;;;;;;5057116;28;20179;-64
2021/12/23 13:00:15;;;;;;;23.80;16.37;;;;;;;;;;5057289;28;20328;-64
2021/12/23 13:02:41;;;;;;;26.00;16.80;;;;;;;;;;5057281;28;20182;-64
2021/12/23 13:05:09;;;;;;;26.50;17.63;;;;;;;;;;5057394;28;20187;-64
2021/12/23 13:07:39;;;;;;;26.67;17.23;;;;;;;;;;5057314;23;20235;-61
2021/12/23 13:10:12;;;;;;;27.00;17.27;;;;;;;;;;5017376;28;20184;-61
2021/12/23 13:12:48;;;;;;;25.50;17.23;;;;;;;;;;5017863;28;20160;-61
2021/12/23 13:15:17;;;;;;;27.07;15.70;;;;;;;;;;5016960;28;20521;-61
2021/12/23 13:17:45;;;;;;;25.77;16.23;;;;;;;;;;5031141;28;20223;-61
2021/12/23 13:20:11;;;;;;;27.13;17.33;;;;;;;;;;5032426;28;20211;-61
2021/12/23 13:22:38;;;;;;;26.37;17.60;;;;;;;;;;5016464;28;20172;-61
2021/12/23 13:25:05;;;;;;;29.80;17.83;;;;;;;;;;5018517;28;20306;-62
2021/12/23 13:27:31;;;;;;;27.67;17.13;;;;;;;;;;5035299;28;20215;-62
2021/12/23 13:30:07;;;;;;;30.20;18.40;;;;;;;;;;5042770;28;20687;-61
2021/12/23 13:32:33;;;;;;;29.47;17.83;;;;;;;;;;5017465;28;20159;-61
2021/12/23 13:35:14;;;;;;;26.47;17.07;;;;;;;;;;5032606;28;20682;-60
2021/12/23 13:37:44;;;;;;;27.00;17.90;;;;;;;;;;5016640;28;20279;-61
2021/12/23 13:40:11;;;;;;;25.60;16.97;;;;;;;;;;5031846;28;20640;-61
2021/12/23 13:42:41;;;;;;;27.93;18.10;;;;;;;;;;5031991;28;20183;-61
2021/12/23 13:45:07;;;;;;;33.43;20.53;;;;;;;;;;5015444;28;20191;-61
2021/12/23 13:47:34;;;;;;;27.27;18.90;;;;;;;;;;5031749;28;20238;-61
2021/12/23 13:50:01;;;;;;;29.03;16.43;;;;;;;;;;5019669;28;20258;-61
2021/12/23 13:52:31;;;;;;;27.37;17.80;;;;;;;;;;5021045;28;20178;-61
2021/12/23 13:55:08;;;;;;;25.77;16.80;;;;;;;;;;5018886;28;20231;-62
2021/12/23 13:57:36;;;;;;;26.80;17.57;;;;;;;;;;5021524;28;20667;-61
2021/12/23 14:00:11;;;;;;;28.27;17.50;;;;;;;;;;5017057;28;20180;-61
2021/12/23 14:02:37;;;;;;;24.67;16.87;;;;;;;;;;5017440;28;20160;-61
2021/12/23 14:05:07;;;;;;;28.30;16.87;;;;;;;;;;5017177;28;20202;-61
2021/12/23 14:07:38;;;;;;;25.83;16.90;;;;;;;;;;5017096;28;20342;-63
2021/12/23 14:10:06;;;;;;;27.27;18.07;;;;;;;;;;5017517;28;20188;-62
2021/12/23 14:12:51;;;;;;;27.13;17.93;;;;;;;;;;5032408;28;20183;-61
2021/12/23 14:15:17;;;;;;;26.77;16.80;;;;;;;;;;5017921;28;20176;-62
2021/12/23 14:17:45;;;;;;;24.80;17.80;;;;;;;;;;5017576;28;20698;-60
2021/12/23 14:23:12;;;;;;;27.87;18.37;;;;;;;;;;5029046;28;20172;-61
2021/12/23 14:25:52;;;;;;;27.13;18.20;;;;;;;;;;5044972;28;20170;-62
2021/12/23 14:28:41;;;;;;;26.67;16.73;;;;;;;;;;5024911;28;20214;-61
2021/12/23 14:31:24;;;;;;;28.20;18.53;;;;;;;;;;5020170;28;20196;-61
2021/12/23 14:33:55;;;;;;;35.73;21.07;;;;;;;;;;5039351;28;20207;-62
2021/12/23 14:36:21;;;;;;;33.30;19.53;;;;;;;;;;5035654;28;20186;-62
2021/12/23 14:38:57;;;;;;;32.17;20.87;;;;;;;;;;5036194;28;20192;-62
2021/12/23 14:41:24;;;;;;;36.53;22.67;;;;;;;;;;5052349;28;20187;-62
2021/12/23 14:43:55;;;;;;;30.90;21.10;;;;;;;;;;5030203;28;20233;-62
2021/12/23 14:46:22;;;;;;;35.00;19.60;;;;;;;;;;5028709;28;20168;-62
2021/12/23 14:51:28;;;;;;;32.97;21.47;;;;;;;;;;5032861;28;20176;-61
2021/12/23 14:54:24;;;;;;;28.93;19.33;;;;;;;;;;5038293;28;20188;-61
2021/12/23 14:56:51;;;;;;;30.93;19.83;;;;;;;;;;5027750;28;20225;-61
2021/12/23 14:59:19;;;;;;;36.50;22.40;;;;;;;;;;5054549;28;20203;-63
2021/12/23 15:01:46;;;;;;;36.23;22.40;;;;;;;;;;5036350;28;20199;-63
2021/12/23 15:04:14;;;;;;;33.57;19.87;;;;;;;;;;5037484;28;20163;-61
2021/12/23 15:07:18;;;;;;;41.10;22.27;;;;;;;;;;5037627;28;20152;-63
2021/12/23 15:09:55;;;;;;;36.00;21.23;;;;;;;;;;4996818;28;20224;-62
2021/12/23 15:12:23;;;;;;;29.57;19.70;;;;;;;;;;4997142;28;20192;-64
2021/12/23 15:14:51;;;;;;;36.37;21.80;;;;;;;;;;5018855;28;20203;-63
2021/12/23 15:17:32;;;;;;;33.97;20.43;;;;;;;;;;5037213;28;20207;-61
2021/12/23 15:19:58;;;;;;;36.47;21.53;;;;;;;;;;5036141;28;20164;-62
2021/12/23 15:22:25;;;;;;;34.83;21.90;;;;;;;;;;5053284;28;20164;-65
2021/12/23 15:25:05;;;;;;;29.27;19.57;;;;;;;;;;5036779;28;20307;-64
2021/12/23 15:27:32;;;;;;;33.80;22.37;;;;;;;;;;5036071;28;20179;-62
2021/12/23 15:30:01;;;;;;;28.53;19.47;;;;;;;;;;5053253;28;20207;-62
2021/12/23 15:32:29;;;;;;;31.73;17.93;;;;;;;;;;5035438;28;20152;-64
2021/12/23 15:35:02;;;;;;;34.33;21.20;;;;;;;;;;5052126;28;20179;-61
2021/12/23 15:37:31;;;;;;;32.53;21.93;;;;;;;;;;5051774;28;20441;-62
2021/12/23 15:39:58;;;;;;;31.63;20.17;;;;;;;;;;5034904;28;20168;-61